sensor_id;sensor_type;location;lat;lon;timestamp;temperature;humidity
33328;DHT22;19692;52.998;9.116;2024-01-16T00:01:52;0.60;99.90
33328;DHT22;19692;52.998;9.116;2024-01-16T00:04:18;0.50;99.90
33328;DHT22;19692;52.998;9.116;2024-01-16T00:06:43;0.50;99.90
33328;DHT22;19692;52.998;9.116;2024-01-16T00:09:09;0.50;99.90
33328;DHT22;19692;52.998;9.116;2024-01-16T00:11:41;0.40;99.90
33328;DHT22;19692;52.998;9.116;2024-01-16T00:14:07;0.40;99.90
33328;DHT22;19692;52.998;9.116;2024-01-16T00:16:33;0.40;99.90
33328;DHT22;19692;52.998;9.116;2024-01-16T00:18:59;0.40;99.90
33328;DHT22;19692;52.998;9.116;2024-01-16T00:21:32;0.40;99.90
33328;DHT22;19692;52.998;9.116;2024-01-16T00:23:58;0.50;99.90
33328;DHT22;19692;52.998;9.116;2024-01-16T00:26:24;0.50;99.90
33328;DHT22;19692;52.998;9.116;2024-01-16T00:28:49;0.40;99.90
33328;DHT22;19692;52.998;9.116;2024-01-16T00:31:15;0.40;99.90
33328;DHT22;19692;52.998;9.116;2024-01-16T00:33:41;0.40;99.90
33328;DHT22;19692;52.998;9.116;2024-01-16T00:36:07;0.40;99.90
33328;DHT22;19692;52.998;9.116;2024-01-16T00:38:33;0.30;99.90
33328;DHT22;19692;52.998;9.116;2024-01-16T00:40:59;0.30;99.90
33328;DHT22;19692;52.998;9.116;2024-01-16T00:43:25;0.30;99.90
33328;DHT22;19692;52.998;9.116;2024-01-16T00:45:50;0.30;99.90
33328;DHT22;19692;52.998;9.116;2024-01-16T00:48:16;0.30;99.90
33328;DHT22;19692;52.998;9.116;2024-01-16T00:50:43;0.30;99.90
33328;DHT22;19692;52.998;9.116;2024-01-16T00:53:08;0.30;99.90
33328;DHT22;19692;52.998;9.116;2024-01-16T00:55:34;0.30;99.90
33328;DHT22;19692;52.998;9.116;2024-01-16T00:58:00;0.30;99.90
33328;DHT22;19692;52.998;9.116;2024-01-16T01:00:26;0.30;99.90
33328;DHT22;19692;52.998;9.116;2024-01-16T01:02:52;0.20;99.90
33328;DHT22;19692;52.998;9.116;2024-01-16T01:05:17;0.20;99.90
33328;DHT22;19692;52.998;9.116;2024-01-16T01:07:43;0.30;99.90
33328;DHT22;19692;52.998;9.116;2024-01-16T01:10:09;0.30;99.90
33328;DHT22;19692;52.998;9.116;2024-01-16T01:12:35;0.30;99.90
33328;DHT22;19692;52.998;9.116;2024-01-16T01:15:01;0.20;99.90
33328;DHT22;19692;52.998;9.116;2024-01-16T01:17:27;0.20;99.90
33328;DHT22;19692;52.998;9.116;2024-01-16T01:19:53;0.30;99.90
33328;DHT22;19692;52.998;9.116;2024-01-16T01:22:18;0.20;99.90
33328;DHT22;19692;52.998;9.116;2024-01-16T01:24:44;0.20;99.90
33328;DHT22;19692;52.998;9.116;2024-01-16T01:27:10;0.30;99.90
33328;DHT22;19692;52.998;9.116;2024-01-16T01:29:35;0.20;99.90
33328;DHT22;19692;52.998;9.116;2024-01-16T01:32:01;0.20;99.90
33328;DHT22;19692;52.998;9.116;2024-01-16T01:34:27;0.20;99.90
33328;DHT22;19692;52.998;9.116;2024-01-16T01:36:53;0.20;99.90
33328;DHT22;19692;52.998;9.116;2024-01-16T01:39:19;0.10;99.90
33328;DHT22;19692;52.998;9.116;2024-01-16T01:41:44;0.10;99.90
33328;DHT22;19692;52.998;9.116;2024-01-16T01:44:10;0.10;99.90
33328;DHT22;19692;52.998;9.116;2024-01-16T01:46:41;0.10;99.90
33328;DHT22;19692;52.998;9.116;2024-01-16T01:49:07;0.00;99.90
33328;DHT22;19692;52.998;9.116;2024-01-16T01:51:33;0.00;99.90
33328;DHT22;19692;52.998;9.116;2024-01-16T01:54:00;0.00;99.90
33328;DHT22;19692;52.998;9.116;2024-01-16T01:56:27;0.00;99.90
33328;DHT22;19692;52.998;9.116;2024-01-16T01:58:55;-0.10;99.90
33328;DHT22;19692;52.998;9.116;2024-01-16T02:01:22;-0.10;99.90
33328;DHT22;19692;52.998;9.116;2024-01-16T02:03:50;-0.10;99.90
33328;DHT22;19692;52.998;9.116;2024-01-16T02:06:16;-0.20;99.90
33328;DHT22;19692;52.998;9.116;2024-01-16T02:08:43;-0.20;99.90
33328;DHT22;19692;52.998;9.116;2024-01-16T02:11:10;-0.20;99.90
33328;DHT22;19692;52.998;9.116;2024-01-16T02:13:36;-0.10;99.90
33328;DHT22;19692;52.998;9.116;2024-01-16T02:16:02;-0.20;99.90
33328;DHT22;19692;52.998;9.116;2024-01-16T02:18:29;-0.20;99.90
33328;DHT22;19692;52.998;9.116;2024-01-16T02:21:00;-0.20;99.90
33328;DHT22;19692;52.998;9.116;2024-01-16T02:23:29;-0.20;99.90
33328;DHT22;19692;52.998;9.116;2024-01-16T02:25:56;-0.20;99.90
33328;DHT22;19692;52.998;9.116;2024-01-16T02:28:22;-0.20;99.90
33328;DHT22;19692;52.998;9.116;2024-01-16T02:30:48;-0.30;99.90
33328;DHT22;19692;52.998;9.116;2024-01-16T02:33:14;-0.20;99.90
33328;DHT22;19692;52.998;9.116;2024-01-16T02:35:39;-0.30;99.90
33328;DHT22;19692;52.998;9.116;2024-01-16T02:38:05;-0.20;99.90
33328;DHT22;19692;52.998;9.116;2024-01-16T02:40:31;-0.30;99.90
33328;DHT22;19692;52.998;9.116;2024-01-16T02:42:56;-0.30;99.90
33328;DHT22;19692;52.998;9.116;2024-01-16T02:45:22;-0.30;99.90
33328;DHT22;19692;52.998;9.116;2024-01-16T02:47:50;-0.30;99.90
33328;DHT22;19692;52.998;9.116;2024-01-16T02:50:16;-0.40;99.90
33328;DHT22;19692;52.998;9.116;2024-01-16T02:52:42;-0.40;99.90
33328;DHT22;19692;52.998;9.116;2024-01-16T02:55:08;-0.40;99.90
33328;DHT22;19692;52.998;9.116;2024-01-16T02:57:34;-0.30;99.90
33328;DHT22;19692;52.998;9.116;2024-01-16T03:00:00;-0.30;99.90
33328;DHT22;19692;52.998;9.116;2024-01-16T03:02:26;-0.30;99.90
33328;DHT22;19692;52.998;9.116;2024-01-16T03:04:51;-0.30;99.90
33328;DHT22;19692;52.998;9.116;2024-01-16T03:07:17;-0.30;99.90
33328;DHT22;19692;52.998;9.116;2024-01-16T03:09:43;-0.30;99.90
33328;DHT22;19692;52.998;9.116;2024-01-16T03:12:11;-0.30;99.90
33328;DHT22;19692;52.998;9.116;2024-01-16T03:14:37;-0.30;99.90
33328;DHT22;19692;52.998;9.116;2024-01-16T03:17:04;-0.40;99.90
33328;DHT22;19692;52.998;9.116;2024-01-16T03:19:31;-0.40;99.90
33328;DHT22;19692;52.998;9.116;2024-01-16T03:21:57;-0.40;99.90
33328;DHT22;19692;52.998;9.116;2024-01-16T03:24:22;-0.50;99.90
33328;DHT22;19692;52.998;9.116;2024-01-16T03:26:48;-0.40;99.90
33328;DHT22;19692;52.998;9.116;2024-01-16T03:29:14;-0.50;99.90
33328;DHT22;19692;52.998;9.116;2024-01-16T03:31:39;-0.50;99.90
33328;DHT22;19692;52.998;9.116;2024-01-16T03:34:05;-0.50;99.90
33328;DHT22;19692;52.998;9.116;2024-01-16T03:36:34;-0.50;99.90
33328;DHT22;19692;52.998;9.116;2024-01-16T03:38:59;-0.40;99.90
33328;DHT22;19692;52.998;9.116;2024-01-16T03:41:25;-0.40;99.90
33328;DHT22;19692;52.998;9.116;2024-01-16T03:43:51;-0.40;99.90
33328;DHT22;19692;52.998;9.116;2024-01-16T03:46:17;-0.40;99.90
33328;DHT22;19692;52.998;9.116;2024-01-16T03:48:42;-0.50;99.90
33328;DHT22;19692;52.998;9.116;2024-01-16T03:51:09;-0.50;99.90
33328;DHT22;19692;52.998;9.116;2024-01-16T03:53:34;-0.50;99.90
33328;DHT22;19692;52.998;9.116;2024-01-16T03:56:00;-0.60;99.90
33328;DHT22;19692;52.998;9.116;2024-01-16T03:58:26;-0.70;99.90
33328;DHT22;19692;52.998;9.116;2024-01-16T04:00:51;-0.70;99.90
33328;DHT22;19692;52.998;9.116;2024-01-16T04:03:18;-0.70;99.90
33328;DHT22;19692;52.998;9.116;2024-01-16T04:05:44;-0.70;99.90
33328;DHT22;19692;52.998;9.116;2024-01-16T04:08:10;-0.80;99.90
33328;DHT22;19692;52.998;9.116;2024-01-16T04:10:37;-0.90;99.90
33328;DHT22;19692;52.998;9.116;2024-01-16T04:13:03;-0.90;99.90
33328;DHT22;19692;52.998;9.116;2024-01-16T04:15:29;-0.90;99.90
33328;DHT22;19692;52.998;9.116;2024-01-16T04:17:55;-0.90;99.90
33328;DHT22;19692;52.998;9.116;2024-01-16T04:20:20;-0.90;99.90
33328;DHT22;19692;52.998;9.116;2024-01-16T04:22:46;-0.90;99.90
33328;DHT22;19692;52.998;9.116;2024-01-16T04:25:12;-1.00;99.90
33328;DHT22;19692;52.998;9.116;2024-01-16T04:27:38;-1.00;99.90
33328;DHT22;19692;52.998;9.116;2024-01-16T04:30:04;-1.10;99.90
33328;DHT22;19692;52.998;9.116;2024-01-16T04:32:30;-1.20;99.90
33328;DHT22;19692;52.998;9.116;2024-01-16T04:34:56;-1.20;99.90
33328;DHT22;19692;52.998;9.116;2024-01-16T04:37:22;-1.20;99.90
33328;DHT22;19692;52.998;9.116;2024-01-16T04:39:49;-1.20;99.90
33328;DHT22;19692;52.998;9.116;2024-01-16T04:42:15;-1.20;99.90
33328;DHT22;19692;52.998;9.116;2024-01-16T04:44:43;-1.30;99.90
33328;DHT22;19692;52.998;9.116;2024-01-16T04:47:09;-1.30;99.90
33328;DHT22;19692;52.998;9.116;2024-01-16T04:49:35;-1.30;99.90
33328;DHT22;19692;52.998;9.116;2024-01-16T04:52:00;-1.40;99.90
33328;DHT22;19692;52.998;9.116;2024-01-16T04:54:26;-1.40;99.90
33328;DHT22;19692;52.998;9.116;2024-01-16T04:56:52;-1.40;99.90
33328;DHT22;19692;52.998;9.116;2024-01-16T04:59:18;-1.50;99.90
33328;DHT22;19692;52.998;9.116;2024-01-16T05:01:43;-1.50;99.90
33328;DHT22;19692;52.998;9.116;2024-01-16T05:04:09;-1.50;99.90
33328;DHT22;19692;52.998;9.116;2024-01-16T05:06:38;-1.50;99.90
33328;DHT22;19692;52.998;9.116;2024-01-16T05:09:04;-1.50;99.90
33328;DHT22;19692;52.998;9.116;2024-01-16T05:11:30;-1.50;99.90
33328;DHT22;19692;52.998;9.116;2024-01-16T05:13:55;-1.50;99.90
33328;DHT22;19692;52.998;9.116;2024-01-16T05:16:26;-1.60;99.90
33328;DHT22;19692;52.998;9.116;2024-01-16T05:18:53;-1.60;99.90
33328;DHT22;19692;52.998;9.116;2024-01-16T05:21:20;-1.60;99.90
33328;DHT22;19692;52.998;9.116;2024-01-16T05:23:46;-1.60;99.90
33328;DHT22;19692;52.998;9.116;2024-01-16T05:26:12;-1.60;99.90
33328;DHT22;19692;52.998;9.116;2024-01-16T05:28:39;-1.70;99.90
33328;DHT22;19692;52.998;9.116;2024-01-16T05:31:05;-1.80;99.90
33328;DHT22;19692;52.998;9.116;2024-01-16T05:33:31;-1.80;99.90
33328;DHT22;19692;52.998;9.116;2024-01-16T05:35:57;-1.80;99.90
33328;DHT22;19692;52.998;9.116;2024-01-16T05:38:23;-1.80;99.90
33328;DHT22;19692;52.998;9.116;2024-01-16T05:40:49;-1.80;99.90
33328;DHT22;19692;52.998;9.116;2024-01-16T05:43:15;-1.80;99.90
33328;DHT22;19692;52.998;9.116;2024-01-16T05:45:40;-1.70;99.90
33328;DHT22;19692;52.998;9.116;2024-01-16T05:48:06;-1.60;99.90
33328;DHT22;19692;52.998;9.116;2024-01-16T05:50:37;-1.50;99.90
33328;DHT22;19692;52.998;9.116;2024-01-16T05:53:03;-1.50;99.90
33328;DHT22;19692;52.998;9.116;2024-01-16T05:55:29;-1.50;99.90
33328;DHT22;19692;52.998;9.116;2024-01-16T05:57:57;-1.40;99.90
33328;DHT22;19692;52.998;9.116;2024-01-16T06:00:26;-1.30;99.90
33328;DHT22;19692;52.998;9.116;2024-01-16T06:02:52;-1.30;99.90
33328;DHT22;19692;52.998;9.116;2024-01-16T06:05:18;-1.30;99.90
33328;DHT22;19692;52.998;9.116;2024-01-16T06:07:47;-1.30;99.90
33328;DHT22;19692;52.998;9.116;2024-01-16T06:10:13;-1.30;99.90
33328;DHT22;19692;52.998;9.116;2024-01-16T06:12:39;-1.30;99.90
33328;DHT22;19692;52.998;9.116;2024-01-16T06:15:06;-1.30;99.90
33328;DHT22;19692;52.998;9.116;2024-01-16T06:17:32;-1.30;99.90
33328;DHT22;19692;52.998;9.116;2024-01-16T06:19:57;-1.30;99.90
33328;DHT22;19692;52.998;9.116;2024-01-16T06:22:23;-1.20;99.90
33328;DHT22;19692;52.998;9.116;2024-01-16T06:24:49;-1.20;99.90
33328;DHT22;19692;52.998;9.116;2024-01-16T06:27:15;-1.20;99.90
33328;DHT22;19692;52.998;9.116;2024-01-16T06:29:45;-1.10;99.90
33328;DHT22;19692;52.998;9.116;2024-01-16T06:32:11;-1.10;99.90
33328;DHT22;19692;52.998;9.116;2024-01-16T06:34:37;-1.10;99.90
33328;DHT22;19692;52.998;9.116;2024-01-16T06:37:03;-1.10;99.90
33328;DHT22;19692;52.998;9.116;2024-01-16T06:39:29;-1.00;99.90
33328;DHT22;19692;52.998;9.116;2024-01-16T06:41:54;-1.00;99.90
33328;DHT22;19692;52.998;9.116;2024-01-16T06:44:20;-0.90;99.90
33328;DHT22;19692;52.998;9.116;2024-01-16T06:46:46;-0.90;99.90
33328;DHT22;19692;52.998;9.116;2024-01-16T06:49:12;-0.90;99.90
33328;DHT22;19692;52.998;9.116;2024-01-16T06:51:37;-0.90;99.90
33328;DHT22;19692;52.998;9.116;2024-01-16T06:54:03;-0.90;99.90
33328;DHT22;19692;52.998;9.116;2024-01-16T06:56:29;-0.80;99.90
33328;DHT22;19692;52.998;9.116;2024-01-16T06:58:55;-0.70;99.90
33328;DHT22;19692;52.998;9.116;2024-01-16T07:01:22;-0.70;99.90
33328;DHT22;19692;52.998;9.116;2024-01-16T07:03:47;-0.70;99.90
33328;DHT22;19692;52.998;9.116;2024-01-16T07:06:13;-0.70;99.90
33328;DHT22;19692;52.998;9.116;2024-01-16T07:08:39;-0.60;99.90
33328;DHT22;19692;52.998;9.116;2024-01-16T07:11:05;-0.60;99.90
33328;DHT22;19692;52.998;9.116;2024-01-16T07:13:33;-0.70;99.90
33328;DHT22;19692;52.998;9.116;2024-01-16T07:15:59;-0.70;99.90
33328;DHT22;19692;52.998;9.116;2024-01-16T07:18:27;-0.60;99.90
33328;DHT22;19692;52.998;9.116;2024-01-16T07:20:53;-0.70;99.90
33328;DHT22;19692;52.998;9.116;2024-01-16T07:23:19;-0.70;99.90
33328;DHT22;19692;52.998;9.116;2024-01-16T07:25:45;-0.70;99.90
33328;DHT22;19692;52.998;9.116;2024-01-16T07:28:11;-0.80;99.90
33328;DHT22;19692;52.998;9.116;2024-01-16T07:30:36;-0.70;99.90
33328;DHT22;19692;52.998;9.116;2024-01-16T07:33:03;-0.70;99.90
33328;DHT22;19692;52.998;9.116;2024-01-16T07:35:29;-0.70;99.90
33328;DHT22;19692;52.998;9.116;2024-01-16T07:37:55;-0.70;99.90
33328;DHT22;19692;52.998;9.116;2024-01-16T07:40:21;-0.70;99.90
33328;DHT22;19692;52.998;9.116;2024-01-16T07:42:46;-0.70;99.90
33328;DHT22;19692;52.998;9.116;2024-01-16T07:45:12;-0.60;99.90
33328;DHT22;19692;52.998;9.116;2024-01-16T07:47:38;-0.70;99.90
33328;DHT22;19692;52.998;9.116;2024-01-16T07:50:04;-0.70;99.90
33328;DHT22;19692;52.998;9.116;2024-01-16T07:52:30;-0.70;99.90
33328;DHT22;19692;52.998;9.116;2024-01-16T07:54:56;-0.60;99.90
33328;DHT22;19692;52.998;9.116;2024-01-16T07:57:21;-0.60;99.90
33328;DHT22;19692;52.998;9.116;2024-01-16T07:59:47;-0.60;99.90
33328;DHT22;19692;52.998;9.116;2024-01-16T08:02:13;-0.60;99.90
33328;DHT22;19692;52.998;9.116;2024-01-16T08:04:38;-0.50;99.90
33328;DHT22;19692;52.998;9.116;2024-01-16T08:07:04;-0.50;99.90
33328;DHT22;19692;52.998;9.116;2024-01-16T08:09:30;-0.50;99.90
33328;DHT22;19692;52.998;9.116;2024-01-16T08:11:56;-0.50;99.90
33328;DHT22;19692;52.998;9.116;2024-01-16T08:14:21;-0.50;99.90
33328;DHT22;19692;52.998;9.116;2024-01-16T08:16:47;-0.40;99.90
33328;DHT22;19692;52.998;9.116;2024-01-16T08:19:13;-0.40;99.90
33328;DHT22;19692;52.998;9.116;2024-01-16T08:21:40;-0.40;99.90
33328;DHT22;19692;52.998;9.116;2024-01-16T08:24:05;-0.30;99.90
33328;DHT22;19692;52.998;9.116;2024-01-16T08:26:31;-0.30;99.90
33328;DHT22;19692;52.998;9.116;2024-01-16T08:28:57;-0.30;99.90
33328;DHT22;19692;52.998;9.116;2024-01-16T08:31:23;-0.30;99.90
33328;DHT22;19692;52.998;9.116;2024-01-16T08:33:49;-0.20;99.90
33328;DHT22;19692;52.998;9.116;2024-01-16T08:36:15;-0.20;99.90
33328;DHT22;19692;52.998;9.116;2024-01-16T08:38:41;-0.30;99.90
33328;DHT22;19692;52.998;9.116;2024-01-16T08:41:06;-0.30;99.90
33328;DHT22;19692;52.998;9.116;2024-01-16T08:43:33;-0.20;99.90
33328;DHT22;19692;52.998;9.116;2024-01-16T08:45:59;-0.20;99.90
33328;DHT22;19692;52.998;9.116;2024-01-16T08:48:25;-0.20;99.90
33328;DHT22;19692;52.998;9.116;2024-01-16T08:50:51;-0.20;99.90
33328;DHT22;19692;52.998;9.116;2024-01-16T08:53:19;-0.10;99.90
33328;DHT22;19692;52.998;9.116;2024-01-16T08:55:48;-0.10;99.90
33328;DHT22;19692;52.998;9.116;2024-01-16T08:58:13;-0.10;99.90
33328;DHT22;19692;52.998;9.116;2024-01-16T09:00:39;0.00;99.90
33328;DHT22;19692;52.998;9.116;2024-01-16T09:03:05;-0.10;99.90
33328;DHT22;19692;52.998;9.116;2024-01-16T09:05:31;0.00;99.90
33328;DHT22;19692;52.998;9.116;2024-01-16T09:07:57;0.10;99.90
33328;DHT22;19692;52.998;9.116;2024-01-16T09:10:22;0.10;99.90
33328;DHT22;19692;52.998;9.116;2024-01-16T09:12:48;0.20;99.90
33328;DHT22;19692;52.998;9.116;2024-01-16T09:15:14;0.20;99.90
33328;DHT22;19692;52.998;9.116;2024-01-16T09:17:40;0.20;99.90
33328;DHT22;19692;52.998;9.116;2024-01-16T09:20:07;0.30;99.90
33328;DHT22;19692;52.998;9.116;2024-01-16T09:22:33;0.40;99.90
33328;DHT22;19692;52.998;9.116;2024-01-16T09:24:59;0.30;99.90
33328;DHT22;19692;52.998;9.116;2024-01-16T09:27:27;0.30;99.90
33328;DHT22;19692;52.998;9.116;2024-01-16T09:29:53;0.40;99.90
33328;DHT22;19692;52.998;9.116;2024-01-16T09:32:18;0.30;99.90
33328;DHT22;19692;52.998;9.116;2024-01-16T09:34:44;0.40;99.90
33328;DHT22;19692;52.998;9.116;2024-01-16T09:37:10;0.40;99.90
33328;DHT22;19692;52.998;9.116;2024-01-16T09:39:38;0.40;99.90
33328;DHT22;19692;52.998;9.116;2024-01-16T09:42:04;0.50;99.90
33328;DHT22;19692;52.998;9.116;2024-01-16T09:44:29;0.40;99.90
33328;DHT22;19692;52.998;9.116;2024-01-16T09:46:55;0.40;99.90
33328;DHT22;19692;52.998;9.116;2024-01-16T09:49:23;0.40;99.90
33328;DHT22;19692;52.998;9.116;2024-01-16T09:51:49;0.40;99.90
33328;DHT22;19692;52.998;9.116;2024-01-16T09:54:15;0.40;99.90
33328;DHT22;19692;52.998;9.116;2024-01-16T09:56:44;0.40;99.90
33328;DHT22;19692;52.998;9.116;2024-01-16T09:59:15;0.50;99.90
33328;DHT22;19692;52.998;9.116;2024-01-16T10:01:42;0.50;99.90
33328;DHT22;19692;52.998;9.116;2024-01-16T10:04:09;0.50;99.90
33328;DHT22;19692;52.998;9.116;2024-01-16T10:06:36;0.60;99.90
33328;DHT22;19692;52.998;9.116;2024-01-16T10:09:03;0.70;99.90
33328;DHT22;19692;52.998;9.116;2024-01-16T10:11:30;0.60;99.90
33328;DHT22;19692;52.998;9.116;2024-01-16T10:13:59;0.60;99.90
33328;DHT22;19692;52.998;9.116;2024-01-16T10:16:57;0.60;99.90
33328;DHT22;19692;52.998;9.116;2024-01-16T10:19:48;0.70;99.90
33328;DHT22;19692;52.998;9.116;2024-01-16T10:22:20;0.70;99.90
33328;DHT22;19692;52.998;9.116;2024-01-16T10:24:47;0.70;99.90
33328;DHT22;19692;52.998;9.116;2024-01-16T10:27:15;0.80;99.90
33328;DHT22;19692;52.998;9.116;2024-01-16T10:29:57;0.80;99.90
33328;DHT22;19692;52.998;9.116;2024-01-16T10:32:27;0.80;99.90
33328;DHT22;19692;52.998;9.116;2024-01-16T10:35:04;0.90;99.90
33328;DHT22;19692;52.998;9.116;2024-01-16T10:37:50;1.10;99.90
33328;DHT22;19692;52.998;9.116;2024-01-16T10:40:23;1.30;99.90
33328;DHT22;19692;52.998;9.116;2024-01-16T10:43:00;1.40;99.90
33328;DHT22;19692;52.998;9.116;2024-01-16T10:45:26;1.40;99.90
33328;DHT22;19692;52.998;9.116;2024-01-16T10:48:08;1.50;99.90
33328;DHT22;19692;52.998;9.116;2024-01-16T10:50:36;1.40;99.90
33328;DHT22;19692;52.998;9.116;2024-01-16T10:53:04;1.40;99.90
33328;DHT22;19692;52.998;9.116;2024-01-16T10:55:31;1.40;99.90
33328;DHT22;19692;52.998;9.116;2024-01-16T10:58:09;1.30;99.90
33328;DHT22;19692;52.998;9.116;2024-01-16T11:00:37;1.40;99.90
33328;DHT22;19692;52.998;9.116;2024-01-16T11:03:11;1.50;99.90
33328;DHT22;19692;52.998;9.116;2024-01-16T11:05:41;1.50;99.90
33328;DHT22;19692;52.998;9.116;2024-01-16T11:08:08;1.50;99.90
33328;DHT22;19692;52.998;9.116;2024-01-16T11:10:35;1.50;99.90
33328;DHT22;19692;52.998;9.116;2024-01-16T11:13:04;1.60;99.90
33328;DHT22;19692;52.998;9.116;2024-01-16T11:15:31;1.70;99.90
33328;DHT22;19692;52.998;9.116;2024-01-16T11:17:59;1.70;99.90
33328;DHT22;19692;52.998;9.116;2024-01-16T11:20:26;1.70;99.90
33328;DHT22;19692;52.998;9.116;2024-01-16T11:22:53;1.70;99.90
33328;DHT22;19692;52.998;9.116;2024-01-16T11:25:31;1.50;99.90
33328;DHT22;19692;52.998;9.116;2024-01-16T11:28:13;1.50;99.90
33328;DHT22;19692;52.998;9.116;2024-01-16T11:30:40;1.50;99.90
33328;DHT22;19692;52.998;9.116;2024-01-16T11:33:06;1.40;99.90
33328;DHT22;19692;52.998;9.116;2024-01-16T11:35:36;1.60;99.90
33328;DHT22;19692;52.998;9.116;2024-01-16T11:38:06;1.50;99.90
33328;DHT22;19692;52.998;9.116;2024-01-16T11:40:39;1.50;99.90
33328;DHT22;19692;52.998;9.116;2024-01-16T11:46:06;1.40;99.90
33328;DHT22;19692;52.998;9.116;2024-01-16T11:48:37;1.30;99.90
33328;DHT22;19692;52.998;9.116;2024-01-16T11:51:23;1.30;99.90
33328;DHT22;19692;52.998;9.116;2024-01-16T11:53:49;1.20;99.90
33328;DHT22;19692;52.998;9.116;2024-01-16T12:02:32;1.20;99.90
33328;DHT22;19692;52.998;9.116;2024-01-16T12:05:04;1.00;99.90
33328;DHT22;19692;52.998;9.116;2024-01-16T12:07:43;1.00;99.90
33328;DHT22;19692;52.998;9.116;2024-01-16T12:10:14;1.00;99.90
33328;DHT22;19692;52.998;9.116;2024-01-16T12:12:44;0.80;99.90
33328;DHT22;19692;52.998;9.116;2024-01-16T12:15:15;0.90;99.90
33328;DHT22;19692;52.998;9.116;2024-01-16T12:18:01;0.80;99.90
33328;DHT22;19692;52.998;9.116;2024-01-16T12:20:28;0.90;99.90
33328;DHT22;19692;52.998;9.116;2024-01-16T12:23:06;0.80;99.90
33328;DHT22;19692;52.998;9.116;2024-01-16T12:25:36;0.90;99.90
33328;DHT22;19692;52.998;9.116;2024-01-16T12:28:04;0.90;99.90
33328;DHT22;19692;52.998;9.116;2024-01-16T12:30:35;0.90;99.90
33328;DHT22;19692;52.998;9.116;2024-01-16T12:33:09;0.90;99.90
33328;DHT22;19692;52.998;9.116;2024-01-16T12:35:42;0.80;99.90
33328;DHT22;19692;52.998;9.116;2024-01-16T12:38:11;0.90;99.90
33328;DHT22;19692;52.998;9.116;2024-01-16T12:40:44;1.00;99.90
33328;DHT22;19692;52.998;9.116;2024-01-16T12:43:12;0.90;99.90
33328;DHT22;19692;52.998;9.116;2024-01-16T12:45:38;0.90;99.90
33328;DHT22;19692;52.998;9.116;2024-01-16T12:48:04;0.80;99.90
33328;DHT22;19692;52.998;9.116;2024-01-16T12:50:31;0.90;99.90
33328;DHT22;19692;52.998;9.116;2024-01-16T12:53:08;0.90;99.90
33328;DHT22;19692;52.998;9.116;2024-01-16T12:55:39;0.90;99.90
33328;DHT22;19692;52.998;9.116;2024-01-16T13:00:45;1.00;99.90
33328;DHT22;19692;52.998;9.116;2024-01-16T13:03:16;0.90;99.90
33328;DHT22;19692;52.998;9.116;2024-01-16T13:05:43;1.00;99.90
33328;DHT22;19692;52.998;9.116;2024-01-16T13:08:16;1.00;99.90
33328;DHT22;19692;52.998;9.116;2024-01-16T13:10:42;1.00;99.90
33328;DHT22;19692;52.998;9.116;2024-01-16T13:13:20;1.00;99.90
33328;DHT22;19692;52.998;9.116;2024-01-16T13:15:47;1.00;99.90
33328;DHT22;19692;52.998;9.116;2024-01-16T13:18:21;0.90;99.90
33328;DHT22;19692;52.998;9.116;2024-01-16T13:20:54;1.00;99.90
33328;DHT22;19692;52.998;9.116;2024-01-16T13:23:21;1.00;99.90
33328;DHT22;19692;52.998;9.116;2024-01-16T13:25:49;1.10;99.90
33328;DHT22;19692;52.998;9.116;2024-01-16T13:28:16;1.00;99.90
33328;DHT22;19692;52.998;9.116;2024-01-16T13:30:44;1.00;99.90
33328;DHT22;19692;52.998;9.116;2024-01-16T13:33:11;1.10;99.90
33328;DHT22;19692;52.998;9.116;2024-01-16T13:35:39;1.10;99.90
33328;DHT22;19692;52.998;9.116;2024-01-16T13:38:06;1.10;99.90
33328;DHT22;19692;52.998;9.116;2024-01-16T13:40:34;1.10;99.90
33328;DHT22;19692;52.998;9.116;2024-01-16T13:43:01;1.20;99.90
33328;DHT22;19692;52.998;9.116;2024-01-16T13:45:27;1.20;99.90
33328;DHT22;19692;52.998;9.116;2024-01-16T13:47:54;1.10;99.90
33328;DHT22;19692;52.998;9.116;2024-01-16T13:50:20;1.10;99.90
33328;DHT22;19692;52.998;9.116;2024-01-16T13:52:46;1.20;99.90
33328;DHT22;19692;52.998;9.116;2024-01-16T13:55:12;1.20;99.90
33328;DHT22;19692;52.998;9.116;2024-01-16T13:57:38;1.20;99.90
33328;DHT22;19692;52.998;9.116;2024-01-16T14:00:05;1.20;99.90
33328;DHT22;19692;52.998;9.116;2024-01-16T14:02:32;1.20;99.90
33328;DHT22;19692;52.998;9.116;2024-01-16T14:05:00;1.20;99.90
33328;DHT22;19692;52.998;9.116;2024-01-16T14:07:26;1.20;99.90
33328;DHT22;19692;52.998;9.116;2024-01-16T14:09:51;1.20;99.90
33328;DHT22;19692;52.998;9.116;2024-01-16T14:12:17;1.10;99.90
33328;DHT22;19692;52.998;9.116;2024-01-16T14:14:44;1.10;99.90
33328;DHT22;19692;52.998;9.116;2024-01-16T14:17:11;1.10;99.90
33328;DHT22;19692;52.998;9.116;2024-01-16T14:19:37;1.10;99.90
33328;DHT22;19692;52.998;9.116;2024-01-16T14:22:03;1.20;99.90
33328;DHT22;19692;52.998;9.116;2024-01-16T14:24:29;1.10;99.90
33328;DHT22;19692;52.998;9.116;2024-01-16T14:26:55;1.10;99.90
33328;DHT22;19692;52.998;9.116;2024-01-16T14:29:24;1.10;99.90
33328;DHT22;19692;52.998;9.116;2024-01-16T14:31:51;1.10;99.90
33328;DHT22;19692;52.998;9.116;2024-01-16T14:34:16;1.10;99.90
33328;DHT22;19692;52.998;9.116;2024-01-16T14:36:42;1.10;99.90
33328;DHT22;19692;52.998;9.116;2024-01-16T14:39:08;1.00;99.90
33328;DHT22;19692;52.998;9.116;2024-01-16T14:41:42;1.00;99.90
33328;DHT22;19692;52.998;9.116;2024-01-16T14:44:09;1.00;99.90
33328;DHT22;19692;52.998;9.116;2024-01-16T14:46:40;1.00;99.90
33328;DHT22;19692;52.998;9.116;2024-01-16T14:49:08;1.00;99.90
33328;DHT22;19692;52.998;9.116;2024-01-16T14:51:37;1.00;99.90
33328;DHT22;19692;52.998;9.116;2024-01-16T14:54:03;1.10;99.90
33328;DHT22;19692;52.998;9.116;2024-01-16T14:56:30;1.10;99.90
33328;DHT22;19692;52.998;9.116;2024-01-16T14:58:57;1.00;99.90
33328;DHT22;19692;52.998;9.116;2024-01-16T15:01:23;1.10;99.90
33328;DHT22;19692;52.998;9.116;2024-01-16T15:03:48;1.00;99.90
33328;DHT22;19692;52.998;9.116;2024-01-16T15:06:15;1.00;99.90
33328;DHT22;19692;52.998;9.116;2024-01-16T15:08:42;1.00;99.90
33328;DHT22;19692;52.998;9.116;2024-01-16T15:11:08;0.90;99.90
33328;DHT22;19692;52.998;9.116;2024-01-16T15:13:34;0.90;99.90
33328;DHT22;19692;52.998;9.116;2024-01-16T15:16:00;0.80;99.90
33328;DHT22;19692;52.998;9.116;2024-01-16T15:18:26;0.80;99.90
33328;DHT22;19692;52.998;9.116;2024-01-16T15:20:52;0.80;99.90
33328;DHT22;19692;52.998;9.116;2024-01-16T15:23:18;0.80;99.90
33328;DHT22;19692;52.998;9.116;2024-01-16T15:25:43;0.70;99.90
33328;DHT22;19692;52.998;9.116;2024-01-16T15:28:09;0.80;99.90
33328;DHT22;19692;52.998;9.116;2024-01-16T15:30:35;0.80;99.90
33328;DHT22;19692;52.998;9.116;2024-01-16T15:33:04;0.70;99.90
33328;DHT22;19692;52.998;9.116;2024-01-16T15:35:31;0.70;99.90
33328;DHT22;19692;52.998;9.116;2024-01-16T15:37:57;0.70;99.90
33328;DHT22;19692;52.998;9.116;2024-01-16T15:40:23;0.60;99.90
33328;DHT22;19692;52.998;9.116;2024-01-16T15:42:49;0.60;99.90
33328;DHT22;19692;52.998;9.116;2024-01-16T15:45:15;0.50;99.90
33328;DHT22;19692;52.998;9.116;2024-01-16T15:47:41;0.60;99.90
33328;DHT22;19692;52.998;9.116;2024-01-16T15:50:08;0.50;99.90
33328;DHT22;19692;52.998;9.116;2024-01-16T15:52:34;0.50;99.90